createdAt,value
2018-08-10T00:00:45.351Z,0.00
2018-08-10T00:01:45.313Z,0.00
2018-08-10T00:02:45.299Z,0.00
2018-08-10T00:03:45.342Z,0.00
2018-08-10T00:04:45.230Z,0.00
2018-08-10T00:05:45.205Z,0.00
2018-08-10T00:06:45.191Z,0.00
2018-08-10T00:07:45.144Z,0.00
2018-08-10T00:08:45.117Z,0.00
2018-08-10T00:09:45.170Z,0.00
2018-08-10T00:10:45.051Z,0.00
2018-08-10T00:11:45.030Z,0.00
2018-08-10T00:12:44.996Z,0.00
2018-08-10T00:13:44.965Z,0.00
2018-08-10T00:14:44.939Z,0.00
2018-08-10T00:15:44.939Z,0.00
2018-08-10T00:16:44.883Z,0.00
2018-08-10T00:17:44.857Z,0.00
2018-08-10T00:18:44.821Z,0.00
2018-08-10T00:19:44.787Z,0.00
2018-08-10T00:20:45.542Z,0.00
2018-08-10T00:21:44.740Z,0.00
2018-08-10T00:22:44.697Z,0.00
2018-08-10T00:23:44.714Z,0.00
2018-08-10T00:24:44.632Z,0.00
2018-08-10T00:25:44.612Z,0.00
2018-08-10T00:26:44.575Z,0.00
2018-08-10T00:27:44.545Z,0.00
2018-08-10T00:28:44.526Z,0.00
2018-08-10T00:29:44.495Z,0.00
2018-08-10T00:30:44.472Z,0.00
2018-08-10T00:31:44.463Z,0.00
2018-08-10T00:32:44.391Z,0.00
2018-08-10T00:33:44.378Z,0.00
2018-08-10T00:34:44.385Z,0.00
2018-08-10T00:35:44.302Z,0.00
2018-08-10T00:36:44.284Z,0.00
2018-08-10T00:37:44.246Z,0.00
2018-08-10T00:38:44.231Z,0.00
2018-08-10T00:39:44.201Z,0.00
2018-08-10T00:40:44.180Z,0.00
2018-08-10T00:41:44.128Z,0.00
2018-08-10T00:42:44.102Z,0.00
2018-08-10T00:43:44.086Z,0.00
2018-08-10T00:44:44.036Z,0.00
2018-08-10T00:45:44.034Z,0.00
2018-08-10T00:46:44.048Z,0.00
2018-08-10T00:47:43.955Z,0.00
2018-08-10T00:48:43.925Z,0.00
2018-08-10T00:49:43.901Z,0.00
2018-08-10T00:50:43.865Z,0.00
2018-08-10T00:51:43.853Z,0.00
2018-08-10T00:52:43.803Z,0.00
2018-08-10T00:53:43.793Z,0.00
2018-08-10T00:54:43.742Z,0.00
2018-08-10T00:55:43.721Z,0.00
2018-08-10T00:56:43.687Z,0.00
2018-08-10T00:57:43.649Z,0.00
2018-08-10T00:58:43.611Z,0.00
2018-08-10T00:59:43.580Z,0.00
2018-08-10T01:00:43.583Z,0.00
2018-08-10T01:01:43.562Z,0.00
2018-08-10T01:02:43.539Z,0.00
2018-08-10T01:03:43.481Z,0.00
2018-08-10T01:04:43.446Z,0.00
2018-08-10T01:05:43.416Z,0.00
2018-08-10T01:06:43.382Z,0.00
2018-08-10T01:07:43.354Z,0.00
2018-08-10T01:08:43.362Z,0.00
2018-08-10T01:09:43.300Z,0.00
2018-08-10T01:10:43.277Z,0.00
2018-08-10T01:11:43.237Z,0.00
2018-08-10T01:12:43.202Z,0.00
2018-08-10T01:13:43.181Z,0.00
2018-08-10T01:14:43.157Z,0.00
2018-08-10T01:15:43.108Z,0.00
2018-08-10T01:16:43.070Z,0.00
2018-08-10T01:17:43.048Z,0.00
2018-08-10T01:18:43.030Z,0.00
2018-08-10T01:19:42.999Z,0.00
2018-08-10T01:20:42.955Z,0.00
2018-08-10T01:21:42.937Z,0.00
2018-08-10T01:22:42.892Z,0.00
2018-08-10T01:23:42.863Z,0.00
2018-08-10T01:24:42.861Z,0.00
2018-08-10T01:25:42.808Z,0.00
2018-08-10T01:26:42.783Z,0.00
2018-08-10T01:27:42.740Z,0.00
2018-08-10T01:28:42.792Z,0.00
2018-08-10T01:29:42.699Z,0.00
2018-08-10T01:30:42.670Z,0.00
2018-08-10T01:31:42.631Z,0.00
2018-08-10T01:32:42.603Z,0.00
2018-08-10T01:33:42.573Z,0.00
2018-08-10T01:34:42.535Z,0.00
2018-08-10T01:35:42.512Z,0.00
2018-08-10T01:36:42.521Z,0.00
2018-08-10T01:37:42.502Z,0.00
2018-08-10T01:38:42.415Z,0.00
2018-08-10T01:39:42.396Z,0.00
2018-08-10T01:40:42.355Z,0.00
2018-08-10T01:41:42.320Z,0.00
2018-08-10T01:42:42.293Z,0.00
2018-08-10T01:43:42.261Z,0.00
2018-08-10T01:44:42.232Z,0.00
2018-08-10T01:45:42.208Z,0.00
2018-08-10T01:46:42.163Z,0.00
2018-08-10T01:47:42.149Z,0.00
2018-08-10T01:48:42.115Z,0.00
2018-08-10T01:49:42.091Z,0.00
2018-08-10T01:50:42.046Z,0.00
2018-08-10T01:51:42.017Z,0.00
2018-08-10T01:52:42.021Z,0.00
2018-08-10T01:53:41.960Z,0.00
2018-08-10T01:54:41.931Z,0.00
2018-08-10T01:55:41.902Z,0.00
2018-08-10T01:56:41.865Z,0.00
2018-08-10T01:57:41.850Z,0.00
2018-08-10T01:58:41.822Z,0.00
2018-08-10T01:59:41.769Z,0.00
2018-08-10T02:00:41.750Z,0.00
2018-08-10T02:01:41.712Z,0.00
2018-08-10T02:02:41.684Z,0.00
2018-08-10T02:03:41.666Z,0.00
2018-08-10T02:04:41.616Z,0.00
2018-08-10T02:05:41.598Z,0.00
2018-08-10T02:06:41.584Z,0.00
2018-08-10T02:07:41.539Z,0.00
2018-08-10T02:08:41.521Z,0.00
2018-08-10T02:09:41.480Z,0.00
2018-08-10T02:10:41.442Z,0.00
2018-08-10T02:11:41.402Z,0.00
2018-08-10T02:12:41.378Z,0.00
2018-08-10T02:13:41.351Z,0.00
2018-08-10T02:14:41.323Z,0.00
2018-08-10T02:15:41.282Z,0.00
2018-08-10T02:16:41.257Z,0.00
2018-08-10T02:17:41.231Z,0.00
2018-08-10T02:18:41.192Z,0.00
2018-08-10T02:19:41.162Z,0.00
2018-08-10T02:20:41.149Z,0.00
2018-08-10T02:21:41.101Z,0.00
2018-08-10T02:22:41.065Z,0.00
2018-08-10T02:23:41.039Z,0.00
2018-08-10T02:24:41.019Z,0.00
2018-08-10T02:25:40.965Z,0.00
2018-08-10T02:26:40.946Z,0.00
2018-08-10T02:27:40.928Z,0.00
2018-08-10T02:28:40.886Z,0.00
2018-08-10T02:29:40.864Z,0.00
2018-08-10T02:30:40.841Z,0.00
2018-08-10T02:31:40.790Z,0.00
2018-08-10T02:32:40.763Z,0.00
2018-08-10T02:33:40.739Z,0.00
2018-08-10T02:34:40.718Z,0.00
2018-08-10T02:35:40.677Z,0.00
2018-08-10T02:36:40.683Z,0.00
2018-08-10T02:37:40.609Z,0.00
2018-08-10T02:38:40.580Z,0.00
2018-08-10T02:39:40.541Z,0.00
2018-08-10T02:40:40.506Z,0.00
2018-08-10T02:41:40.479Z,0.00
2018-08-10T02:42:40.561Z,0.00
2018-08-10T02:43:40.415Z,0.00
2018-08-10T02:44:40.411Z,0.00
2018-08-10T02:45:40.376Z,0.00
2018-08-10T02:46:40.331Z,0.00
2018-08-10T02:47:40.304Z,0.00
2018-08-10T02:48:40.272Z,0.00
2018-08-10T02:49:40.236Z,0.00
2018-08-10T02:50:40.202Z,0.00
2018-08-10T02:51:40.201Z,0.00
2018-08-10T02:52:40.142Z,0.00
2018-08-10T02:53:40.109Z,0.00
2018-08-10T02:54:40.082Z,0.00
2018-08-10T02:55:40.057Z,0.00
2018-08-10T02:56:40.022Z,0.00
2018-08-10T02:57:39.996Z,0.00
2018-08-10T02:58:39.950Z,0.00
2018-08-10T02:59:39.929Z,0.00
2018-08-10T03:00:39.890Z,0.00
2018-08-10T03:01:39.858Z,0.00
2018-08-10T03:02:39.983Z,0.00
2018-08-10T03:03:39.797Z,0.00
2018-08-10T03:04:39.776Z,0.00
2018-08-10T03:05:39.748Z,0.00
2018-08-10T03:06:39.720Z,0.00
2018-08-10T03:07:39.690Z,0.00
2018-08-10T03:08:39.642Z,0.00
2018-08-10T03:09:39.618Z,0.00
2018-08-10T03:10:39.590Z,0.00
2018-08-10T03:11:39.563Z,0.00
2018-08-10T03:12:39.558Z,0.00
2018-08-10T03:13:39.527Z,0.00
2018-08-10T03:14:39.474Z,0.00
2018-08-10T03:15:41.197Z,0.00
2018-08-10T03:16:39.434Z,0.00
2018-08-10T03:17:39.485Z,0.00
2018-08-10T03:18:39.328Z,0.00
2018-08-10T03:19:39.309Z,0.00
2018-08-10T03:20:39.299Z,0.00
2018-08-10T03:21:39.373Z,0.00
2018-08-10T03:22:39.240Z,0.00
2018-08-10T03:23:39.179Z,0.00
2018-08-10T03:24:39.153Z,0.00
2018-08-10T03:25:39.176Z,0.00
2018-08-10T03:26:39.091Z,0.00
2018-08-10T03:27:39.062Z,0.00
2018-08-10T03:28:39.023Z,0.00
2018-08-10T03:29:39.020Z,0.00
2018-08-10T03:30:38.963Z,0.00
2018-08-10T03:31:38.932Z,0.00
2018-08-10T03:32:38.912Z,0.00
2018-08-10T03:33:38.875Z,0.00
2018-08-10T03:34:38.847Z,0.00
2018-08-10T03:35:38.806Z,0.00
2018-08-10T03:36:38.785Z,0.00
2018-08-10T03:37:38.744Z,0.00
2018-08-10T03:38:38.709Z,0.00
2018-08-10T03:39:38.730Z,0.00
2018-08-10T03:40:38.653Z,0.00
2018-08-10T03:41:38.653Z,0.00
2018-08-10T03:42:38.617Z,5.63
2018-08-10T03:43:38.566Z,5.63
2018-08-10T03:44:38.557Z,5.63
2018-08-10T03:45:38.497Z,5.63
2018-08-10T03:46:39.124Z,5.63
2018-08-10T03:47:38.538Z,5.63
2018-08-10T03:48:38.411Z,11.25
2018-08-10T03:49:38.368Z,11.25
2018-08-10T03:50:38.327Z,11.25
2018-08-10T03:51:38.307Z,11.25
2018-08-10T03:52:38.290Z,11.25
2018-08-10T03:53:38.243Z,11.25
2018-08-10T03:54:38.212Z,11.25
2018-08-10T03:55:38.173Z,11.25
2018-08-10T03:56:38.143Z,11.25
2018-08-10T03:57:38.112Z,16.88
2018-08-10T03:58:38.093Z,16.88
2018-08-10T03:59:38.071Z,16.88
2018-08-10T04:00:38.087Z,16.88
2018-08-10T04:01:38.013Z,16.88
2018-08-10T04:02:37.962Z,22.50
2018-08-10T04:03:37.944Z,22.50
2018-08-10T04:04:37.926Z,22.50
2018-08-10T04:05:37.877Z,28.13
2018-08-10T04:06:37.829Z,28.13
2018-08-10T04:07:37.814Z,28.13
2018-08-10T04:08:37.786Z,28.13
2018-08-10T04:09:37.745Z,28.13
2018-08-10T04:10:37.846Z,28.13
2018-08-10T04:11:37.690Z,28.13
2018-08-10T04:12:37.644Z,33.75
2018-08-10T04:13:37.628Z,33.75
2018-08-10T04:14:37.579Z,39.38
2018-08-10T04:15:37.556Z,45.00
2018-08-10T04:16:37.523Z,45.00
2018-08-10T04:17:37.480Z,50.63
2018-08-10T04:18:37.456Z,56.25
2018-08-10T04:19:37.439Z,61.88
2018-08-10T04:20:37.420Z,67.50
2018-08-10T04:21:37.365Z,73.13
2018-08-10T04:22:37.360Z,78.75
2018-08-10T04:23:37.299Z,84.38
2018-08-10T04:24:37.278Z,90.00
2018-08-10T04:25:37.231Z,95.63
2018-08-10T04:26:37.207Z,95.63
2018-08-10T04:27:37.177Z,101.25
2018-08-10T04:28:37.152Z,101.25
2018-08-10T04:29:37.126Z,101.25
2018-08-10T04:30:37.091Z,101.25
2018-08-10T04:31:37.055Z,106.88
2018-08-10T04:32:37.060Z,106.88
2018-08-10T04:33:37.009Z,106.88
2018-08-10T04:34:36.960Z,106.88
2018-08-10T04:35:36.919Z,106.88
2018-08-10T04:36:36.892Z,106.88
2018-08-10T04:37:36.862Z,106.88
2018-08-10T04:38:36.865Z,112.50
2018-08-10T04:39:36.799Z,112.50
2018-08-10T04:40:36.772Z,106.88
2018-08-10T04:41:36.755Z,106.88
2018-08-10T04:42:36.703Z,106.88
2018-08-10T04:43:36.677Z,112.50
2018-08-10T04:44:36.715Z,112.50
2018-08-10T04:45:36.603Z,118.13
2018-08-10T04:46:36.573Z,123.75
2018-08-10T04:47:36.572Z,135.00
2018-08-10T04:48:36.523Z,146.25
2018-08-10T04:49:36.482Z,157.50
2018-08-10T04:50:36.458Z,174.38
2018-08-10T04:51:36.424Z,191.25
2018-08-10T04:52:36.406Z,202.50
2018-08-10T04:53:36.357Z,208.13
2018-08-10T04:54:36.342Z,202.50
2018-08-10T04:55:36.295Z,196.88
2018-08-10T04:56:36.295Z,191.25
2018-08-10T04:57:36.229Z,202.50
2018-08-10T04:58:36.204Z,208.13
2018-08-10T04:59:36.179Z,219.38
2018-08-10T05:00:36.134Z,225.00
2018-08-10T05:01:36.120Z,230.63
2018-08-10T05:02:36.077Z,230.63
2018-08-10T05:03:36.071Z,230.63
2018-08-10T05:04:36.019Z,225.00
2018-08-10T05:05:35.983Z,213.75
2018-08-10T05:06:35.948Z,208.13
2018-08-10T05:07:35.916Z,196.88
2018-08-10T05:08:35.896Z,180.00
2018-08-10T05:09:35.960Z,174.38
2018-08-10T05:10:35.823Z,163.13
2018-08-10T05:11:38.750Z,157.50
2018-08-10T05:12:35.772Z,151.88
2018-08-10T05:13:35.746Z,151.88
2018-08-10T05:14:35.724Z,151.88
2018-08-10T05:15:35.710Z,151.88
2018-08-10T05:16:35.644Z,163.13
2018-08-10T05:17:35.623Z,163.13
2018-08-10T05:18:35.588Z,168.75
2018-08-10T05:19:35.545Z,163.13
2018-08-10T05:20:35.511Z,157.50
2018-08-10T05:21:35.506Z,151.88
2018-08-10T05:22:35.452Z,163.13
2018-08-10T05:23:35.414Z,174.38
2018-08-10T05:24:35.378Z,185.63
2018-08-10T05:25:35.363Z,185.63
2018-08-10T05:26:35.328Z,180.00
2018-08-10T05:27:35.288Z,168.75
2018-08-10T05:28:35.387Z,180.00
2018-08-10T05:29:35.244Z,196.88
2018-08-10T05:30:35.222Z,208.13
2018-08-10T05:31:35.174Z,213.75
2018-08-10T05:32:35.130Z,225.00
2018-08-10T05:33:35.105Z,247.50
2018-08-10T05:34:35.068Z,258.75
2018-08-10T05:35:35.036Z,258.75
2018-08-10T05:36:35.019Z,236.25
2018-08-10T05:37:34.974Z,208.13
2018-08-10T05:38:35.068Z,185.63
2018-08-10T05:39:34.906Z,185.63
2018-08-10T05:40:34.883Z,185.63
2018-08-10T05:41:34.878Z,213.75
2018-08-10T05:42:34.811Z,253.13
2018-08-10T05:43:34.793Z,281.25
2018-08-10T05:44:34.757Z,298.13
2018-08-10T05:45:34.734Z,320.63
2018-08-10T05:46:34.698Z,348.75
2018-08-10T05:47:34.661Z,365.63
2018-08-10T05:48:34.638Z,382.50
2018-08-10T05:49:34.632Z,393.75
2018-08-10T05:50:34.565Z,399.38
2018-08-10T05:51:34.573Z,410.63
2018-08-10T05:52:34.578Z,405.00
2018-08-10T05:53:34.476Z,410.63
2018-08-10T05:54:34.435Z,416.25
2018-08-10T05:55:34.399Z,433.13
2018-08-10T05:56:34.386Z,450.00
2018-08-10T05:57:34.401Z,472.50
2018-08-10T05:58:34.313Z,506.25
2018-08-10T05:59:34.288Z,545.63
2018-08-10T06:00:34.322Z,590.63
2018-08-10T06:01:34.217Z,635.63
2018-08-10T06:02:34.182Z,652.50
2018-08-10T06:03:34.219Z,663.75
2018-08-10T06:04:37.004Z,663.75
2018-08-10T06:05:34.092Z,680.63
2018-08-10T06:06:34.100Z,691.88
2018-08-10T06:07:34.030Z,691.88
2018-08-10T06:08:34.006Z,691.88
2018-08-10T06:09:33.970Z,697.50
2018-08-10T06:10:33.945Z,708.75
2018-08-10T06:11:33.916Z,725.63
2018-08-10T06:12:33.878Z,753.75
2018-08-10T06:13:33.852Z,776.25
2018-08-10T06:14:33.818Z,798.75
2018-08-10T06:15:33.858Z,838.13
2018-08-10T06:16:33.748Z,866.25
2018-08-10T06:17:33.734Z,883.13
2018-08-10T06:18:33.682Z,877.50
2018-08-10T06:19:33.763Z,866.25
2018-08-10T06:20:33.635Z,843.75
2018-08-10T06:21:33.646Z,832.50
2018-08-10T06:22:33.567Z,821.25
2018-08-10T06:23:33.543Z,815.63
2018-08-10T06:24:33.503Z,821.25
2018-08-10T06:25:33.481Z,838.13
2018-08-10T06:26:33.504Z,849.38
2018-08-10T06:27:33.429Z,849.38
2018-08-10T06:28:33.384Z,821.25
2018-08-10T06:29:33.364Z,781.88
2018-08-10T06:30:33.327Z,753.75
2018-08-10T06:31:33.294Z,742.50
2018-08-10T06:32:33.267Z,748.13
2018-08-10T06:33:33.233Z,776.25
2018-08-10T06:34:33.205Z,804.38
2018-08-10T06:35:33.238Z,832.50
2018-08-10T06:36:33.127Z,866.25
2018-08-10T06:37:33.111Z,888.75
2018-08-10T06:38:33.077Z,911.25
2018-08-10T06:39:33.048Z,922.50
2018-08-10T06:40:33.020Z,922.50
2018-08-10T06:41:32.999Z,911.25
2018-08-10T06:42:32.956Z,905.63
2018-08-10T06:43:32.927Z,866.25
2018-08-10T06:44:32.897Z,798.75
2018-08-10T06:45:32.887Z,753.75
2018-08-10T06:46:32.829Z,731.25
2018-08-10T06:47:32.799Z,714.38
2018-08-10T06:48:32.784Z,691.88
2018-08-10T06:49:32.741Z,675.00
2018-08-10T06:50:32.711Z,658.13
2018-08-10T06:51:32.711Z,652.50
2018-08-10T06:52:32.649Z,663.75
2018-08-10T06:53:32.619Z,680.63
2018-08-10T06:54:32.583Z,731.25
2018-08-10T06:55:32.556Z,759.38
2018-08-10T06:56:32.596Z,776.25
2018-08-10T06:57:32.508Z,804.38
2018-08-10T06:58:32.503Z,849.38
2018-08-10T06:59:32.454Z,900.00
2018-08-10T07:00:32.478Z,978.75
2018-08-10T07:01:32.428Z,1063.13
2018-08-10T07:02:32.372Z,1130.63
2018-08-10T07:03:32.319Z,1153.13
2018-08-10T07:04:32.291Z,1175.63
2018-08-10T07:05:32.258Z,1147.50
2018-08-10T07:06:32.231Z,1147.50
2018-08-10T07:07:32.396Z,1153.13
2018-08-10T07:08:32.163Z,1226.25
2018-08-10T07:09:32.173Z,1248.75
2018-08-10T07:10:32.108Z,1687.50
2018-08-10T07:11:32.082Z,1293.75
2018-08-10T07:12:32.056Z,1276.88
2018-08-10T07:13:32.026Z,1378.13
2018-08-10T07:14:32.037Z,1518.75
2018-08-10T07:15:32.017Z,1451.25
2018-08-10T07:16:32.077Z,1479.38
2018-08-10T07:17:31.909Z,1473.75
2018-08-10T07:18:31.869Z,1496.25
2018-08-10T07:19:31.952Z,1440.00
2018-08-10T07:20:31.823Z,1586.25
2018-08-10T07:21:32.696Z,1631.25
2018-08-10T07:22:31.756Z,1693.13
2018-08-10T07:23:31.720Z,1749.38
2018-08-10T07:24:31.705Z,1788.75
2018-08-10T07:25:31.668Z,1681.88
2018-08-10T07:26:31.638Z,1597.50
2018-08-10T07:27:31.623Z,1603.13
2018-08-10T07:28:31.588Z,1524.38
2018-08-10T07:29:31.557Z,1659.38
2018-08-10T07:30:31.527Z,1541.25
2018-08-10T07:31:31.532Z,1552.50
2018-08-10T07:32:31.481Z,1552.50
2018-08-10T07:33:31.433Z,1670.63
2018-08-10T07:34:31.405Z,1732.50
2018-08-10T07:35:31.370Z,1726.88
2018-08-10T07:36:31.367Z,1546.88
2018-08-10T07:37:31.381Z,1417.50
2018-08-10T07:38:31.303Z,1378.13
2018-08-10T07:39:31.272Z,1411.88
2018-08-10T07:40:31.272Z,1417.50
2018-08-10T07:41:31.246Z,1344.38
2018-08-10T07:42:31.188Z,1293.75
2018-08-10T07:43:31.198Z,1305.00
2018-08-10T07:44:31.135Z,1417.50
2018-08-10T07:45:31.099Z,1220.63
2018-08-10T07:46:31.107Z,1220.63
2018-08-10T07:47:31.049Z,1411.88
2018-08-10T07:48:31.005Z,1490.63
2018-08-10T07:49:30.981Z,1620.00
2018-08-10T07:50:30.970Z,1766.25
2018-08-10T07:51:30.923Z,1873.13
2018-08-10T07:52:30.900Z,2227.50
2018-08-10T07:53:30.876Z,2851.88
2018-08-10T07:54:30.840Z,2323.13
2018-08-10T07:55:30.803Z,1895.63
2018-08-10T07:56:30.814Z,2041.88
2018-08-10T07:57:30.751Z,1867.50
2018-08-10T07:58:30.744Z,2070.00
2018-08-10T07:59:30.765Z,2008.13
2018-08-10T08:00:30.676Z,2086.88
2018-08-10T08:01:30.650Z,2115.00
2018-08-10T08:02:30.622Z,1558.13
2018-08-10T08:03:30.591Z,1755.00
2018-08-10T08:04:30.575Z,1659.38
2018-08-10T08:05:30.600Z,2126.25
2018-08-10T08:06:30.542Z,2278.13
2018-08-10T08:07:30.507Z,1918.13
2018-08-10T08:08:30.476Z,2345.63
2018-08-10T08:09:30.440Z,2784.38
2018-08-10T08:10:30.474Z,2548.13
2018-08-10T08:11:30.389Z,2452.50
2018-08-10T08:12:30.351Z,1957.50
2018-08-10T08:13:30.358Z,1344.38
2018-08-10T08:14:30.433Z,1440.00
2018-08-10T08:15:30.281Z,1445.63
2018-08-10T08:16:30.351Z,2025.00
2018-08-10T08:17:30.235Z,1653.75
2018-08-10T08:18:30.194Z,2115.00
2018-08-10T08:19:30.232Z,2171.25
2018-08-10T08:20:30.144Z,1535.63
2018-08-10T08:21:30.109Z,3611.25
2018-08-10T08:22:30.090Z,3645.00
2018-08-10T08:23:30.073Z,2548.13
2018-08-10T08:24:30.055Z,2868.75
2018-08-10T08:25:30.022Z,1569.38
2018-08-10T08:26:30.001Z,1485.00
2018-08-10T08:27:29.999Z,1226.25
2018-08-10T08:28:29.937Z,1203.75
2018-08-10T08:29:29.933Z,1282.50
2018-08-10T08:30:29.893Z,2463.75
2018-08-10T08:31:29.860Z,1524.38
2018-08-10T08:32:29.853Z,2958.75
2018-08-10T08:33:29.828Z,2953.13
2018-08-10T08:34:29.780Z,4246.88
2018-08-10T08:35:29.759Z,3543.75
2018-08-10T08:36:29.732Z,2857.50
2018-08-10T08:37:29.722Z,3768.75
2018-08-10T08:38:29.672Z,3841.88
2018-08-10T08:39:29.654Z,4050.00
2018-08-10T08:40:29.638Z,3864.38
2018-08-10T08:41:29.604Z,3571.88
2018-08-10T08:42:29.600Z,4061.25
2018-08-10T08:43:29.557Z,4303.13
2018-08-10T08:44:29.524Z,1361.25
2018-08-10T08:45:29.649Z,1395.00
2018-08-10T08:46:29.700Z,3425.63
2018-08-10T08:47:29.458Z,3594.38
2018-08-10T08:48:29.434Z,3796.88
2018-08-10T08:49:29.440Z,4106.25
2018-08-10T08:50:29.398Z,2598.75
2018-08-10T08:51:29.370Z,4061.25
2018-08-10T08:52:29.360Z,2655.00
2018-08-10T08:53:29.340Z,2385.00
2018-08-10T08:54:29.304Z,2756.25
2018-08-10T08:55:29.299Z,2103.75
2018-08-10T08:56:29.284Z,1873.13
2018-08-10T08:57:29.239Z,1783.13
2018-08-10T08:58:29.217Z,1845.00
2018-08-10T08:59:29.231Z,2115.00
2018-08-10T09:00:29.162Z,3740.63
2018-08-10T09:01:29.151Z,3819.38
2018-08-10T09:02:29.119Z,3251.25
2018-08-10T09:03:29.126Z,2278.13
2018-08-10T09:04:29.069Z,2266.88
2018-08-10T09:05:29.190Z,5130.00
2018-08-10T09:06:29.073Z,3645.00
2018-08-10T09:07:29.120Z,3532.50
2018-08-10T09:08:29.435Z,3594.38
2018-08-10T09:09:28.987Z,2908.13
2018-08-10T09:10:28.956Z,2300.63
2018-08-10T09:11:28.998Z,2947.50
2018-08-10T09:12:28.881Z,1878.75
2018-08-10T09:13:28.896Z,2160.00
2018-08-10T09:14:28.930Z,2514.38
2018-08-10T09:15:28.822Z,2345.63
2018-08-10T09:16:28.815Z,2092.50
2018-08-10T09:17:28.887Z,1985.63
2018-08-10T09:18:28.749Z,1766.25
2018-08-10T09:19:28.740Z,1777.50
2018-08-10T09:20:28.750Z,1890.00
2018-08-10T09:21:28.708Z,1963.13
2018-08-10T09:22:28.658Z,1693.13
2018-08-10T09:23:28.717Z,1788.75
2018-08-10T09:24:28.734Z,1710.00
2018-08-10T09:25:28.580Z,1963.13
2018-08-10T09:26:28.646Z,5000.63
2018-08-10T09:27:28.539Z,3695.63
2018-08-10T09:28:28.508Z,1698.75
2018-08-10T09:29:28.507Z,1670.63
2018-08-10T09:30:28.492Z,1721.25
2018-08-10T09:31:28.442Z,1777.50
2018-08-10T09:32:28.409Z,1845.00
2018-08-10T09:33:28.398Z,1805.63
2018-08-10T09:34:28.433Z,1884.38
2018-08-10T09:35:28.340Z,2261.25
2018-08-10T09:36:28.322Z,2750.63
2018-08-10T09:37:28.294Z,2396.25
2018-08-10T09:38:28.290Z,2525.63
2018-08-10T09:39:28.238Z,2508.75
2018-08-10T09:40:28.226Z,3785.63
2018-08-10T09:41:28.191Z,4095.00
2018-08-10T09:42:28.172Z,2446.88
2018-08-10T09:43:28.144Z,2874.38
2018-08-10T09:44:28.115Z,2722.50
2018-08-10T09:45:28.148Z,3110.63
2018-08-10T09:46:28.065Z,2463.75
2018-08-10T09:47:28.047Z,4387.50
2018-08-10T09:48:28.072Z,2401.88
2018-08-10T09:49:27.997Z,2115.00
2018-08-10T09:50:27.979Z,2013.75
2018-08-10T09:51:27.950Z,2115.00
2018-08-10T09:52:27.918Z,2188.13
2018-08-10T09:53:27.906Z,2148.75
2018-08-10T09:54:27.864Z,2328.75
2018-08-10T09:55:27.864Z,2525.63
2018-08-10T09:56:28.766Z,2368.13
2018-08-10T09:57:27.797Z,2289.38
2018-08-10T09:58:27.776Z,2176.88
2018-08-10T09:59:27.749Z,2137.50
2018-08-10T10:00:27.732Z,2143.13
2018-08-10T10:01:27.700Z,2148.75
2018-08-10T10:02:27.662Z,2154.38
2018-08-10T10:03:27.654Z,2160.00
2018-08-10T10:04:27.626Z,2210.63
2018-08-10T10:05:27.601Z,2289.38
2018-08-10T10:06:27.578Z,2317.50
2018-08-10T10:07:27.540Z,2233.13
2018-08-10T10:08:27.519Z,2115.00
2018-08-10T10:09:27.500Z,2058.75
2018-08-10T10:10:27.467Z,2081.25
2018-08-10T10:11:27.456Z,2126.25
2018-08-10T10:12:27.422Z,2182.50
2018-08-10T10:13:27.404Z,2244.38
2018-08-10T10:14:27.369Z,2351.25
2018-08-10T10:15:27.348Z,2458.13
2018-08-10T10:16:27.322Z,2610.00
2018-08-10T10:17:27.303Z,2953.13
2018-08-10T10:18:27.272Z,3015.00
2018-08-10T10:19:27.249Z,2801.25
2018-08-10T10:20:27.220Z,2491.88
2018-08-10T10:21:27.222Z,2401.88
2018-08-10T10:22:27.178Z,2458.13
2018-08-10T10:23:27.144Z,2463.75
2018-08-10T10:24:27.119Z,2902.50
2018-08-10T10:25:27.118Z,6885.00
2018-08-10T10:26:27.070Z,6114.38
2018-08-10T10:27:27.042Z,5208.75
2018-08-10T10:28:27.035Z,5163.75
2018-08-10T10:29:26.993Z,3723.75
2018-08-10T10:30:26.970Z,3138.75
2018-08-10T10:31:26.947Z,2469.38
2018-08-10T10:32:26.921Z,2806.88
2018-08-10T10:33:26.907Z,3285.00
2018-08-10T10:34:26.886Z,2283.75
2018-08-10T10:35:26.843Z,5304.38
2018-08-10T10:36:26.886Z,3290.63
2018-08-10T10:37:26.812Z,2373.75
2018-08-10T10:38:26.793Z,2317.50
2018-08-10T10:39:26.777Z,2092.50
2018-08-10T10:40:26.724Z,2570.63
2018-08-10T10:41:26.889Z,2801.25
2018-08-10T10:42:26.701Z,2925.00
2018-08-10T10:43:26.644Z,4663.13
2018-08-10T10:44:26.622Z,4888.13
2018-08-10T10:45:26.606Z,4651.88
2018-08-10T10:46:26.585Z,5490.00
2018-08-10T10:47:26.600Z,5214.38
2018-08-10T10:48:26.532Z,1175.63
2018-08-10T10:49:26.499Z,5315.63
2018-08-10T10:50:26.509Z,5574.38
2018-08-10T10:51:26.470Z,5276.25
2018-08-10T10:52:26.436Z,4516.88
2018-08-10T10:53:26.412Z,4702.50
2018-08-10T10:54:26.400Z,5225.63
2018-08-10T10:55:26.442Z,4972.50
2018-08-10T10:56:26.353Z,4505.63
2018-08-10T10:57:26.318Z,4584.38
2018-08-10T10:58:26.285Z,4651.88
2018-08-10T10:59:26.288Z,4584.38
2018-08-10T11:00:26.256Z,4921.88
2018-08-10T11:01:26.236Z,4545.00
2018-08-10T11:02:26.224Z,4708.13
2018-08-10T11:03:26.172Z,4398.75
2018-08-10T11:04:26.151Z,4466.25
2018-08-10T11:05:26.124Z,4753.13
2018-08-10T11:06:26.183Z,2430.00
2018-08-10T11:07:26.096Z,2840.63
2018-08-10T11:08:26.070Z,4567.50
2018-08-10T11:09:26.072Z,5602.50
2018-08-10T11:10:26.037Z,6125.63
2018-08-10T11:11:25.997Z,5540.63
2018-08-10T11:12:25.984Z,2520.00
2018-08-10T11:13:25.952Z,4561.88
2018-08-10T11:14:25.937Z,4680.00
2018-08-10T11:15:25.919Z,5641.88
2018-08-10T11:16:25.895Z,3515.63
2018-08-10T11:17:25.873Z,3690.00
2018-08-10T11:18:25.846Z,2891.25
2018-08-10T11:19:25.844Z,4320.00
2018-08-10T11:20:25.816Z,2525.63
2018-08-10T11:21:25.778Z,2885.63
2018-08-10T11:22:25.756Z,4764.38
2018-08-10T11:23:25.738Z,2311.88
2018-08-10T11:24:25.743Z,2328.75
2018-08-10T11:25:25.798Z,2188.13
2018-08-10T11:26:25.676Z,2328.75
2018-08-10T11:27:25.679Z,5388.75
2018-08-10T11:28:25.645Z,3898.13
2018-08-10T11:29:25.601Z,5220.00
2018-08-10T11:30:25.658Z,5281.88
2018-08-10T11:31:25.591Z,5473.13
2018-08-10T11:32:25.554Z,4809.38
2018-08-10T11:33:25.518Z,4854.38
2018-08-10T11:34:25.512Z,1580.63
2018-08-10T11:35:25.474Z,5090.63
2018-08-10T11:36:25.452Z,4668.75
2018-08-10T11:37:25.660Z,4680.00
2018-08-10T11:38:25.456Z,5045.63
2018-08-10T11:39:25.561Z,4545.00
2018-08-10T11:40:25.366Z,4618.13
2018-08-10T11:41:25.394Z,5214.38
2018-08-10T11:42:25.334Z,5107.50
2018-08-10T11:43:25.301Z,5006.25
2018-08-10T11:44:25.305Z,5096.25
2018-08-10T11:45:25.286Z,4899.38
2018-08-10T11:46:25.281Z,5090.63
2018-08-10T11:47:25.238Z,5698.13
2018-08-10T11:48:25.184Z,2812.50
2018-08-10T11:49:26.929Z,1665.00
2018-08-10T11:50:25.154Z,3808.13
2018-08-10T11:51:25.123Z,5186.25
2018-08-10T11:52:25.110Z,5557.50
2018-08-10T11:53:25.150Z,5400.00
2018-08-10T11:54:25.055Z,5405.63
2018-08-10T11:55:25.070Z,5838.75
2018-08-10T11:56:25.063Z,5118.75
2018-08-10T11:57:25.077Z,6120.00
2018-08-10T11:58:25.176Z,4629.38
2018-08-10T11:59:24.960Z,5388.75
2018-08-10T12:00:25.013Z,6007.50
2018-08-10T12:01:24.933Z,5428.13
2018-08-10T12:02:24.977Z,2362.50
2018-08-10T12:03:24.865Z,1721.25
2018-08-10T12:04:24.859Z,1355.63
2018-08-10T12:05:24.834Z,1327.50
2018-08-10T12:06:24.796Z,1473.75
2018-08-10T12:07:24.824Z,1344.38
2018-08-10T12:08:24.758Z,1260.00
2018-08-10T12:09:24.745Z,1316.25
2018-08-10T12:10:24.728Z,1524.38
2018-08-10T12:11:25.315Z,1406.25
2018-08-10T12:12:24.710Z,1389.38
2018-08-10T12:13:24.661Z,1276.88
2018-08-10T12:14:24.641Z,1203.75
2018-08-10T12:15:24.656Z,1198.13
2018-08-10T12:16:24.581Z,1170.00
2018-08-10T12:17:24.580Z,1192.50
2018-08-10T12:18:24.548Z,1237.50
2018-08-10T12:19:24.522Z,5203.13
2018-08-10T12:20:24.510Z,5501.25
2018-08-10T12:21:24.476Z,1490.63
2018-08-10T12:22:24.449Z,1496.25
2018-08-10T12:23:24.478Z,5945.63
2018-08-10T12:24:24.424Z,5670.00
2018-08-10T12:25:24.380Z,5371.88
2018-08-10T12:26:24.358Z,5996.25
2018-08-10T12:27:24.363Z,6097.50
2018-08-10T12:28:24.312Z,6080.63
2018-08-10T12:29:24.330Z,1276.88
2018-08-10T12:30:24.416Z,4927.50
2018-08-10T12:31:24.245Z,5422.50
2018-08-10T12:32:24.217Z,5422.50
2018-08-10T12:33:24.238Z,5428.13